createdAt,value
2022-11-04T00:02:16.070Z,60.70
2022-11-04T00:04:44.647Z,61.30
2022-11-04T00:07:28.427Z,62.30
2022-11-04T00:09:56.915Z,63.10
2022-11-04T00:12:27.229Z,61.80
2022-11-04T00:15:15.770Z,62.20
2022-11-04T00:17:43.238Z,61.80
2022-11-04T00:20:26.551Z,60.20
2022-11-04T00:23:13.653Z,59.60
2022-11-04T00:26:14.082Z,59.70
2022-11-04T00:28:45.502Z,60.00
2022-11-04T00:31:31.589Z,60.70
2022-11-04T00:34:00.946Z,60.90
2022-11-04T00:36:29.570Z,60.10
2022-11-04T00:38:59.840Z,59.50
2022-11-04T00:41:28.950Z,59.20
2022-11-04T00:44:00.182Z,58.80
2022-11-04T00:46:30.004Z,57.10
2022-11-04T00:48:58.804Z,56.60
2022-11-04T00:51:27.463Z,56.30
2022-11-04T00:54:00.115Z,57.00
2022-11-04T00:56:28.636Z,56.90
2022-11-04T00:58:57.573Z,56.80
2022-11-04T01:01:26.240Z,56.90
2022-11-04T01:03:55.562Z,57.50
2022-11-04T01:06:26.658Z,57.80
2022-11-04T01:08:59.854Z,58.00
2022-11-04T01:11:31.373Z,58.10
2022-11-04T01:14:02.902Z,57.30
2022-11-04T01:16:31.645Z,57.60
2022-11-04T01:19:06.405Z,57.50
2022-11-04T01:21:35.089Z,57.20
2022-11-04T01:24:06.090Z,56.80
2022-11-04T01:26:34.592Z,56.40
2022-11-04T01:29:03.190Z,56.00
2022-11-04T01:31:33.136Z,55.30
2022-11-04T01:34:01.841Z,55.00
2022-11-04T01:36:32.370Z,55.20
2022-11-04T01:39:00.794Z,55.40
2022-11-04T01:41:34.180Z,55.50
2022-11-04T01:44:05.282Z,55.40
2022-11-04T01:46:42.208Z,55.20
2022-11-04T01:49:26.833Z,54.60
2022-11-04T01:52:02.095Z,54.20
2022-11-04T01:54:33.100Z,55.00
2022-11-04T01:57:08.780Z,54.80
2022-11-04T01:59:42.032Z,54.40
2022-11-04T02:02:10.951Z,54.60
2022-11-04T02:04:40.902Z,53.90
2022-11-04T02:07:11.796Z,54.20
2022-11-04T02:09:42.761Z,54.10
2022-11-04T02:12:29.869Z,53.80
2022-11-04T02:14:59.973Z,52.90
2022-11-04T02:17:51.198Z,53.60
2022-11-04T02:20:42.193Z,53.30
2022-11-04T02:24:02.463Z,53.00
2022-11-04T02:27:12.317Z,52.80
2022-11-04T02:30:08.066Z,53.10
2022-11-04T02:33:12.620Z,52.90
2022-11-04T02:35:51.611Z,53.00
2022-11-04T02:38:35.959Z,54.00
2022-11-04T02:41:17.847Z,54.60
2022-11-04T02:44:02.435Z,54.60
2022-11-04T02:46:38.933Z,54.30
2022-11-04T02:49:15.799Z,53.10
2022-11-04T02:51:51.591Z,53.40
2022-11-04T02:54:27.446Z,53.40
2022-11-04T02:57:02.897Z,52.80
2022-11-04T02:59:41.042Z,52.50
2022-11-04T03:02:16.502Z,52.00
2022-11-04T03:04:50.563Z,51.60
2022-11-04T03:07:25.452Z,51.10
2022-11-04T03:10:02.275Z,50.50
2022-11-04T03:12:40.841Z,50.60
2022-11-04T03:15:16.788Z,51.00
2022-11-04T03:17:55.993Z,50.90
2022-11-04T03:20:29.689Z,50.80
2022-11-04T03:23:00.331Z,50.90
2022-11-04T03:25:37.494Z,50.70
2022-11-04T03:28:21.608Z,50.60
2022-11-04T03:30:56.394Z,50.50
2022-11-04T03:33:34.099Z,50.50
2022-11-04T03:36:04.532Z,50.20
2022-11-04T03:38:33.034Z,49.40
2022-11-04T03:41:04.882Z,50.20
2022-11-04T03:43:37.116Z,50.60
2022-11-04T03:46:06.629Z,50.60
2022-11-04T03:48:37.618Z,50.40
2022-11-04T03:51:06.760Z,50.10
2022-11-04T03:53:35.272Z,49.70
2022-11-04T03:56:33.232Z,48.90
2022-11-04T03:59:27.001Z,49.40
2022-11-04T04:02:01.736Z,49.10
2022-11-04T04:04:35.028Z,48.40
2022-11-04T04:07:11.326Z,48.10
2022-11-04T04:09:45.509Z,48.00
2022-11-04T04:12:27.146Z,47.90
2022-11-04T04:15:05.159Z,47.50
2022-11-04T04:17:38.895Z,47.40
2022-11-04T04:20:15.463Z,47.50
2022-11-04T04:22:50.904Z,47.00
2022-11-04T04:25:39.747Z,47.20
2022-11-04T04:28:09.515Z,47.40
2022-11-04T04:30:40.499Z,47.50
2022-11-04T04:33:14.788Z,47.30
2022-11-04T04:35:50.653Z,47.30
2022-11-04T04:38:44.113Z,47.60
2022-11-04T04:41:36.575Z,47.40
2022-11-04T04:44:24.943Z,47.60
2022-11-04T04:46:56.221Z,47.20
2022-11-04T04:49:24.630Z,46.90
2022-11-04T04:51:54.509Z,46.40
2022-11-04T04:54:22.912Z,47.50
2022-11-04T04:56:51.560Z,47.60
2022-11-04T04:59:20.164Z,47.60
2022-11-04T05:01:48.879Z,47.40
2022-11-04T05:04:17.625Z,47.50
2022-11-04T05:06:46.052Z,47.20
2022-11-04T05:09:15.974Z,46.20
2022-11-04T05:11:44.497Z,46.50
2022-11-04T05:14:13.074Z,46.60
2022-11-04T05:16:41.601Z,46.50
2022-11-04T05:19:10.089Z,46.50
2022-11-04T05:21:38.569Z,46.20
2022-11-04T05:24:07.365Z,46.40
2022-11-04T05:26:37.247Z,46.20
2022-11-04T05:29:05.751Z,46.30
2022-11-04T05:31:34.241Z,46.10
2022-11-04T05:34:02.689Z,45.90
2022-11-04T05:36:33.085Z,46.30
2022-11-04T05:39:01.505Z,46.60
2022-11-04T05:41:30.075Z,46.30
2022-11-04T05:44:02.596Z,46.60
2022-11-04T05:46:32.428Z,46.50
2022-11-04T05:49:00.853Z,46.60
2022-11-04T05:51:31.100Z,46.40
2022-11-04T05:53:59.530Z,46.10
2022-11-04T05:56:28.009Z,46.30
2022-11-04T05:58:56.514Z,46.30
2022-11-04T06:01:32.399Z,46.20
2022-11-04T06:04:02.067Z,45.90
2022-11-04T06:06:34.995Z,45.80
2022-11-04T06:09:04.371Z,45.80
2022-11-04T06:11:35.310Z,45.60
2022-11-04T06:14:04.093Z,45.50
2022-11-04T06:16:33.971Z,45.40
2022-11-04T06:19:06.059Z,45.20
2022-11-04T06:21:38.109Z,45.10
2022-11-04T06:24:07.088Z,45.30
2022-11-04T06:26:35.581Z,45.30
2022-11-04T06:29:04.054Z,45.40
2022-11-04T06:31:33.866Z,45.40
2022-11-04T06:34:02.358Z,45.60
2022-11-04T06:36:30.835Z,45.80
2022-11-04T06:39:04.409Z,46.00
2022-11-04T06:41:33.691Z,46.10
2022-11-04T06:44:02.213Z,45.90
2022-11-04T06:46:37.960Z,46.20
2022-11-04T06:49:08.224Z,46.30
2022-11-04T06:51:36.741Z,46.00
2022-11-04T06:54:05.394Z,46.30
2022-11-04T06:56:33.826Z,46.30
2022-11-04T06:59:02.235Z,46.30
2022-11-04T07:01:37.176Z,46.30
2022-11-04T07:04:06.827Z,46.60
2022-11-04T07:06:37.285Z,46.90
2022-11-04T07:09:08.257Z,46.90
2022-11-04T07:11:36.646Z,47.20
2022-11-04T07:14:05.115Z,47.60
2022-11-04T07:16:34.941Z,47.90
2022-11-04T07:19:03.561Z,47.90
2022-11-04T07:21:32.626Z,47.70
2022-11-04T07:24:02.347Z,47.70
2022-11-04T07:26:31.017Z,47.60
2022-11-04T07:29:01.039Z,47.40
2022-11-04T07:31:29.968Z,47.20
2022-11-04T07:34:00.011Z,47.00
2022-11-04T07:36:28.491Z,46.90
2022-11-04T07:38:57.015Z,46.90
2022-11-04T07:41:25.542Z,47.10
2022-11-04T07:43:54.994Z,47.00
2022-11-04T07:46:23.874Z,47.20
2022-11-04T07:48:52.465Z,47.60
2022-11-04T07:51:23.404Z,47.50
2022-11-04T07:53:51.950Z,47.20
2022-11-04T07:56:20.753Z,46.70
2022-11-04T07:58:49.149Z,46.40
2022-11-04T08:01:23.404Z,45.90
2022-11-04T08:03:52.370Z,46.10
2022-11-04T08:06:23.461Z,46.40
2022-11-04T08:08:54.181Z,46.50
2022-11-04T08:11:28.460Z,46.50
2022-11-04T08:13:57.644Z,46.30
2022-11-04T08:16:33.048Z,46.20
2022-11-04T08:19:03.162Z,45.90
2022-11-04T08:21:34.838Z,45.80
2022-11-04T08:24:05.334Z,45.50
2022-11-04T08:26:33.809Z,45.30
2022-11-04T08:29:02.671Z,45.00
2022-11-04T08:31:33.798Z,45.00
2022-11-04T08:34:02.938Z,44.80
2022-11-04T08:36:36.744Z,44.60
2022-11-04T08:39:10.931Z,44.40
2022-11-04T08:41:45.498Z,44.70
2022-11-04T08:44:14.730Z,43.80
2022-11-04T08:46:48.507Z,43.70
2022-11-04T08:49:20.979Z,43.30
2022-11-04T08:51:56.647Z,43.10
2022-11-04T08:54:25.481Z,42.80
2022-11-04T08:56:54.652Z,42.90
2022-11-04T08:59:25.007Z,42.40
2022-11-04T09:01:53.665Z,42.50
2022-11-04T09:04:22.423Z,43.00
2022-11-04T09:06:52.398Z,43.40
2022-11-04T09:09:22.215Z,43.70
2022-11-04T09:11:51.109Z,43.30
2022-11-04T09:14:19.604Z,43.70
2022-11-04T09:16:48.036Z,43.70
2022-11-04T09:19:16.702Z,43.00
2022-11-04T09:21:45.262Z,42.40
2022-11-04T09:24:15.182Z,42.30
2022-11-04T09:26:44.787Z,42.30
2022-11-04T09:29:13.264Z,41.90
2022-11-04T09:31:43.293Z,42.00
2022-11-04T09:34:11.755Z,42.00
2022-11-04T09:36:40.248Z,41.70
2022-11-04T09:39:08.755Z,41.40
2022-11-04T09:42:16.421Z,39.80
2022-11-04T09:45:20.144Z,39.20
2022-11-04T09:47:46.630Z,38.80
2022-11-04T09:50:25.499Z,38.70
2022-11-04T09:53:02.822Z,38.60
2022-11-04T09:55:39.531Z,38.30
2022-11-04T09:58:14.552Z,38.40
2022-11-04T10:00:50.127Z,37.60
2022-11-04T10:03:43.003Z,36.90
2022-11-04T10:06:42.320Z,36.00
2022-11-04T10:09:33.314Z,36.20
2022-11-04T10:12:22.102Z,35.80
2022-11-04T10:15:37.965Z,35.20
2022-11-04T10:18:44.109Z,34.60
2022-11-04T10:21:26.262Z,33.60
2022-11-04T10:24:14.418Z,33.90
2022-11-04T10:26:47.601Z,33.90
2022-11-04T10:29:20.922Z,34.20
2022-11-04T10:31:54.035Z,34.00
2022-11-04T10:34:36.771Z,34.50
2022-11-04T10:37:05.824Z,33.80
2022-11-04T10:39:40.591Z,33.00
2022-11-04T10:42:12.612Z,34.00
2022-11-04T10:44:41.783Z,33.50
2022-11-04T10:47:29.590Z,32.60
2022-11-04T10:50:29.487Z,32.90
2022-11-04T10:53:14.272Z,33.40
2022-11-04T10:55:52.971Z,33.10
2022-11-04T10:58:26.825Z,32.50
2022-11-04T11:00:56.225Z,31.90
2022-11-04T11:03:32.770Z,31.20
2022-11-04T11:06:26.111Z,31.50
2022-11-04T11:09:13.033Z,30.60
2022-11-04T11:11:47.588Z,30.90
2022-11-04T11:14:32.090Z,30.50
2022-11-04T11:17:24.785Z,29.40
2022-11-04T11:20:00.707Z,29.20
2022-11-04T11:22:38.339Z,27.60
2022-11-04T11:25:27.914Z,26.40
2022-11-04T11:28:00.353Z,25.40
2022-11-04T11:30:42.170Z,25.00
2022-11-04T11:33:24.659Z,24.80
2022-11-04T11:36:00.057Z,24.80
2022-11-04T11:38:38.852Z,24.10
2022-11-04T11:41:30.491Z,24.60
2022-11-04T11:44:07.316Z,24.30
2022-11-04T11:46:42.090Z,23.00
2022-11-04T11:49:29.125Z,23.20
2022-11-04T11:52:33.542Z,23.20
2022-11-04T11:55:08.756Z,23.60
2022-11-04T12:00:51.966Z,23.90
2022-11-04T12:09:43.748Z,23.60
2022-11-04T12:12:35.564Z,22.90
2022-11-04T12:15:23.969Z,22.90
2022-11-04T12:18:26.525Z,22.50
2022-11-04T12:21:05.625Z,22.70
2022-11-04T12:23:47.366Z,23.00
2022-11-04T12:26:35.387Z,23.20
2022-11-04T12:29:37.271Z,23.00
2022-11-04T12:32:21.474Z,23.30
2022-11-04T12:35:07.773Z,22.90
2022-11-04T12:37:55.990Z,23.80
2022-11-04T12:40:30.472Z,24.50
2022-11-04T12:43:22.325Z,24.20
2022-11-04T12:46:11.109Z,23.80
2022-11-04T12:49:07.048Z,23.70
2022-11-04T12:51:47.201Z,23.70
2022-11-04T12:54:48.225Z,24.20
2022-11-04T12:57:31.930Z,23.20
2022-11-04T13:00:15.743Z,23.10
2022-11-04T13:02:51.505Z,23.40
2022-11-04T13:05:41.412Z,23.20
2022-11-04T13:08:23.973Z,24.70
2022-11-04T13:11:00.762Z,23.70
2022-11-04T13:13:35.675Z,23.40
2022-11-04T13:16:13.105Z,22.70
2022-11-04T13:18:43.697Z,23.00
2022-11-04T13:21:20.022Z,22.80
2022-11-04T13:23:59.242Z,23.10
2022-11-04T13:26:28.040Z,22.50
2022-11-04T13:29:08.669Z,22.70
2022-11-04T13:31:54.219Z,22.50
2022-11-04T13:34:39.457Z,22.30
2022-11-04T13:37:20.986Z,22.40
2022-11-04T13:39:59.434Z,22.00
2022-11-04T13:43:20.925Z,22.30
2022-11-04T13:45:54.953Z,20.90
2022-11-04T13:48:31.925Z,21.40
2022-11-04T13:51:06.458Z,21.40
2022-11-04T13:53:49.658Z,21.40
2022-11-04T13:56:37.940Z,21.20
2022-11-04T13:59:21.551Z,21.00
2022-11-04T14:01:50.716Z,22.20
2022-11-04T14:04:32.450Z,21.90
2022-11-04T14:07:04.106Z,21.50
2022-11-04T14:09:53.291Z,22.10
2022-11-04T14:12:36.213Z,22.60
2022-11-04T14:16:01.680Z,21.60
2022-11-04T14:18:33.125Z,21.80
2022-11-04T14:21:09.511Z,22.10
2022-11-04T14:23:39.936Z,22.80
2022-11-04T14:26:12.085Z,22.00
2022-11-04T14:28:44.991Z,22.10
2022-11-04T14:31:17.820Z,21.20
2022-11-04T14:33:56.006Z,21.20
2022-11-04T14:36:36.595Z,21.30
2022-11-04T14:39:22.275Z,21.70
2022-11-04T14:41:59.620Z,21.50
2022-11-04T14:44:38.689Z,21.40
2022-11-04T14:47:20.366Z,21.70
2022-11-04T14:49:52.651Z,21.90
2022-11-04T14:52:32.472Z,22.00
2022-11-04T14:55:09.512Z,21.90
2022-11-04T14:57:41.049Z,22.30
2022-11-04T15:00:31.114Z,22.90
2022-11-04T15:04:08.712Z,23.30
2022-11-04T15:06:11.395Z,23.60
2022-11-04T15:08:46.900Z,23.50
2022-11-04T15:11:40.917Z,23.60
2022-11-04T15:14:18.241Z,23.70
2022-11-04T15:16:52.669Z,24.70
2022-11-04T15:19:30.559Z,25.80
2022-11-04T15:22:02.259Z,26.80
2022-11-04T15:24:33.042Z,27.80
2022-11-04T15:27:06.019Z,27.70
2022-11-04T15:29:34.793Z,27.90
2022-11-04T15:32:06.110Z,27.90
2022-11-04T15:34:37.419Z,28.40
2022-11-04T15:37:08.087Z,29.10
2022-11-04T15:39:43.973Z,29.40
2022-11-04T15:42:40.298Z,29.90
2022-11-04T15:45:40.831Z,30.50
2022-11-04T15:48:31.775Z,30.80
2022-11-04T15:51:20.467Z,31.90
2022-11-04T15:53:54.817Z,33.20
2022-11-04T15:56:29.916Z,33.90
2022-11-04T15:59:01.002Z,34.00
2022-11-04T16:01:30.051Z,34.30
2022-11-04T16:04:02.069Z,34.90
2022-11-04T16:06:42.240Z,35.30
2022-11-04T16:09:23.685Z,36.90
2022-11-04T16:12:18.699Z,38.60
2022-11-04T16:14:56.421Z,39.40
2022-11-04T16:22:07.531Z,39.70
2022-11-04T16:24:38.824Z,39.70
2022-11-04T16:27:14.072Z,39.50
2022-11-04T16:30:18.179Z,39.40
2022-11-04T16:32:53.936Z,39.70
2022-11-04T16:35:26.565Z,40.30
2022-11-04T16:37:57.250Z,41.10
2022-11-04T16:40:26.781Z,42.20
2022-11-04T16:42:56.064Z,43.10
2022-11-04T16:45:30.895Z,43.40
2022-11-04T16:47:59.555Z,43.50
2022-11-04T16:50:31.992Z,43.60
2022-11-04T16:53:03.311Z,43.50
2022-11-04T16:55:33.377Z,43.30
2022-11-04T16:58:05.484Z,42.90
2022-11-04T17:00:36.146Z,42.90
2022-11-04T17:03:21.733Z,42.60
2022-11-04T17:05:51.173Z,42.50
2022-11-04T17:08:19.936Z,42.20
2022-11-04T17:10:48.963Z,42.70
2022-11-04T17:13:17.622Z,41.50
2022-11-04T17:15:48.055Z,41.40
2022-11-04T17:18:18.919Z,41.60
2022-11-04T17:20:52.523Z,41.50
2022-11-04T17:23:21.971Z,41.30
2022-11-04T17:25:51.500Z,41.70
2022-11-04T17:28:20.428Z,42.20
2022-11-04T17:30:50.797Z,42.60
2022-11-04T17:33:21.717Z,43.10
2022-11-04T17:35:52.368Z,43.50
2022-11-04T17:38:21.327Z,44.50
2022-11-04T17:41:07.566Z,44.80
2022-11-04T17:43:53.737Z,45.50
2022-11-04T17:46:37.861Z,44.70
2022-11-04T17:49:12.818Z,44.60
2022-11-04T17:51:43.294Z,44.10
2022-11-04T17:54:12.647Z,44.10
2022-11-04T17:56:42.669Z,44.20
2022-11-04T17:59:14.228Z,44.10
2022-11-04T18:01:46.430Z,43.90
2022-11-04T18:04:17.549Z,43.70
2022-11-04T18:06:46.623Z,43.60
2022-11-04T18:09:16.421Z,43.30
2022-11-04T18:12:03.769Z,43.30
2022-11-04T18:14:33.280Z,43.30
2022-11-04T18:17:04.748Z,43.50
2022-11-04T18:19:33.635Z,43.30
2022-11-04T18:22:02.466Z,43.10
2022-11-04T18:24:31.200Z,42.80
2022-11-04T18:27:00.981Z,42.80
2022-11-04T18:29:29.714Z,42.80
2022-11-04T18:31:58.724Z,42.60
2022-11-04T18:34:28.792Z,42.60
2022-11-04T18:36:58.282Z,42.70
2022-11-04T18:39:27.047Z,43.20
2022-11-04T18:41:55.657Z,43.20
2022-11-04T18:44:24.406Z,43.20
2022-11-04T18:46:53.044Z,42.70
2022-11-04T18:49:21.783Z,42.90
2022-11-04T18:51:51.831Z,42.80
2022-11-04T18:54:20.921Z,42.70
2022-11-04T18:56:49.581Z,42.50
2022-11-04T18:59:18.633Z,42.60
2022-11-04T19:01:47.717Z,42.30
2022-11-04T19:04:16.453Z,42.30
2022-11-04T19:06:46.502Z,41.90
2022-11-04T19:09:45.265Z,41.50
2022-11-04T19:12:25.411Z,41.60
2022-11-04T19:14:54.732Z,41.60
2022-11-04T19:17:25.391Z,41.50
2022-11-04T19:19:53.990Z,41.50
2022-11-04T19:22:22.807Z,41.50
2022-11-04T19:24:52.855Z,41.40
2022-11-04T19:27:23.088Z,41.50
2022-11-04T19:29:51.956Z,41.30
2022-11-04T19:32:20.689Z,41.30
2022-11-04T19:34:49.757Z,41.30
2022-11-04T19:37:19.518Z,41.20
2022-11-04T19:39:48.207Z,41.00
2022-11-04T19:42:35.302Z,40.80
2022-11-04T19:45:04.049Z,40.20
2022-11-04T19:47:32.777Z,40.40
2022-11-04T19:50:01.641Z,40.50
2022-11-04T19:52:30.327Z,40.50
2022-11-04T19:54:58.904Z,40.50
2022-11-04T19:57:29.141Z,40.50
2022-11-04T19:59:57.849Z,40.60
2022-11-04T20:02:26.763Z,40.60
2022-11-04T20:04:55.580Z,40.70
2022-11-04T20:07:24.593Z,40.80
2022-11-04T20:09:54.897Z,41.60
2022-11-04T20:12:41.333Z,40.90
2022-11-04T20:15:12.288Z,41.10
2022-11-04T20:17:41.478Z,41.10
2022-11-04T20:20:10.350Z,41.20
2022-11-04T20:22:39.528Z,41.20
2022-11-04T20:25:09.152Z,41.20
2022-11-04T20:27:39.574Z,41.00
2022-11-04T20:30:11.630Z,41.00
2022-11-04T20:32:41.124Z,40.90
2022-11-04T20:35:10.356Z,40.90
2022-11-04T20:37:39.004Z,40.80
2022-11-04T20:40:09.672Z,40.70
2022-11-04T20:42:38.331Z,40.60
2022-11-04T20:45:08.184Z,40.80
2022-11-04T20:47:38.287Z,41.00
2022-11-04T20:50:08.797Z,41.30
2022-11-04T20:52:38.335Z,41.30
2022-11-04T20:55:08.649Z,41.20
2022-11-04T20:57:37.322Z,41.40
2022-11-04T21:00:09.060Z,42.30
2022-11-04T21:02:39.477Z,41.70
2022-11-04T21:05:09.112Z,41.90
2022-11-04T21:07:38.512Z,41.90
2022-11-04T21:10:07.992Z,42.30
2022-11-04T21:12:36.894Z,42.40
2022-11-04T21:15:26.691Z,42.90
2022-11-04T21:17:56.810Z,43.50
2022-11-04T21:20:25.570Z,43.10
2022-11-04T21:22:54.365Z,43.40
2022-11-04T21:25:23.595Z,43.60
2022-11-04T21:27:52.386Z,43.80
2022-11-04T21:30:21.128Z,43.90
2022-11-04T21:32:49.715Z,43.90
2022-11-04T21:35:20.192Z,44.20
2022-11-04T21:37:48.847Z,44.30
2022-11-04T21:40:17.640Z,44.40
2022-11-04T21:42:47.225Z,44.40
2022-11-04T21:45:16.083Z,44.50
2022-11-04T21:47:44.839Z,44.40
2022-11-04T21:50:17.876Z,44.40
2022-11-04T21:52:48.501Z,44.40
2022-11-04T21:55:17.232Z,44.30
2022-11-04T21:57:46.469Z,44.30
2022-11-04T22:00:16.328Z,44.30
2022-11-04T22:02:47.880Z,44.40
2022-11-04T22:05:16.943Z,44.40
2022-11-04T22:08:03.194Z,44.40
2022-11-04T22:10:33.311Z,44.40
2022-11-04T22:13:02.081Z,44.50
2022-11-04T22:15:50.112Z,44.40
2022-11-04T22:18:18.832Z,44.70
2022-11-04T22:20:47.450Z,44.70
2022-11-04T22:23:16.885Z,44.90
2022-11-04T22:25:50.083Z,45.00
2022-11-04T22:28:19.725Z,45.10
2022-11-04T22:30:48.449Z,45.00
2022-11-04T22:33:17.164Z,44.90
2022-11-04T22:35:47.080Z,44.90
2022-11-04T22:38:15.927Z,44.90
2022-11-04T22:40:44.751Z,44.60
2022-11-04T22:43:14.972Z,44.40
2022-11-04T22:45:43.676Z,44.60
2022-11-04T22:48:12.420Z,44.80
2022-11-04T22:50:41.239Z,44.90
2022-11-04T22:53:10.141Z,44.90
2022-11-04T22:55:39.637Z,45.00
2022-11-04T22:58:08.317Z,45.10
2022-11-04T23:00:38.571Z,44.90
2022-11-04T23:03:08.545Z,45.20
2022-11-04T23:05:38.342Z,45.50
2022-11-04T23:08:07.682Z,45.70
2022-11-04T23:10:54.308Z,45.60
2022-11-04T23:13:40.578Z,45.40
2022-11-04T23:16:31.343Z,45.30
2022-11-04T23:19:00.026Z,45.50
2022-11-04T23:21:46.135Z,45.70
2022-11-04T23:24:33.637Z,45.70
2022-11-04T23:27:02.387Z,45.20
2022-11-04T23:29:48.669Z,45.50
2022-11-04T23:32:21.968Z,45.80
2022-11-04T23:35:12.284Z,46.00
2022-11-04T23:37:40.945Z,46.20
2022-11-04T23:40:11.133Z,46.10
2022-11-04T23:42:40.498Z,46.30
2022-11-04T23:45:28.098Z,46.40
2022-11-04T23:48:15.530Z,46.40
2022-11-04T23:51:01.362Z,46.40
2022-11-04T23:53:47.703Z,46.20
2022-11-04T23:56:34.229Z,46.30
2022-11-04T23:59:20.230Z,46.40
